createdAt,value
2019-03-18T00:00:41.097Z,2.96
2019-03-18T00:05:35.062Z,3.06
2019-03-18T00:10:29.128Z,3.09
2019-03-18T00:15:23.192Z,3.00
2019-03-18T00:20:17.160Z,3.01
2019-03-18T00:25:14.639Z,2.96
2019-03-18T00:30:16.303Z,2.93
2019-03-18T00:35:10.352Z,2.91
2019-03-18T00:40:12.718Z,2.92
2019-03-18T00:45:14.806Z,2.94
2019-03-18T00:50:05.559Z,2.88
2019-03-18T00:54:59.539Z,2.90
2019-03-18T00:59:53.495Z,3.00
2019-03-18T01:04:47.509Z,3.07
2019-03-18T01:09:41.510Z,3.11
2019-03-18T01:14:35.476Z,3.14
2019-03-18T01:19:29.431Z,3.14
2019-03-18T01:24:23.386Z,3.09
2019-03-18T01:29:17.368Z,3.14
2019-03-18T01:34:11.442Z,3.01
2019-03-18T01:39:05.500Z,3.02
2019-03-18T01:43:59.479Z,3.03
2019-03-18T01:48:53.479Z,3.04
2019-03-18T01:53:47.436Z,3.01
2019-03-18T01:58:41.517Z,3.07
2019-03-18T02:03:35.482Z,3.04
2019-03-18T02:08:29.423Z,2.96
2019-03-18T02:13:23.398Z,3.02
2019-03-18T02:18:17.379Z,2.96
2019-03-18T02:23:11.335Z,2.99
2019-03-18T02:28:05.319Z,3.04
2019-03-18T02:32:59.296Z,3.04
2019-03-18T02:37:53.274Z,3.18
2019-03-18T02:42:47.248Z,3.20
2019-03-18T02:47:41.213Z,3.12
2019-03-18T02:52:35.282Z,3.14
2019-03-18T02:57:29.248Z,3.32
2019-03-18T03:02:23.205Z,3.34
2019-03-18T03:07:17.265Z,3.22
2019-03-18T03:12:11.224Z,3.25
2019-03-18T03:17:05.179Z,3.27
2019-03-18T03:21:59.191Z,3.34
2019-03-18T03:26:53.140Z,3.51
2019-03-18T03:31:47.119Z,3.51
2019-03-18T03:36:41.098Z,3.72
2019-03-18T03:41:35.342Z,3.83
2019-03-18T03:46:42.210Z,3.90
2019-03-18T03:51:25.157Z,3.98
2019-03-18T03:56:19.152Z,4.13
2019-03-18T04:01:13.534Z,4.15
2019-03-18T04:06:07.474Z,4.08
2019-03-18T04:11:01.558Z,4.02
2019-03-18T04:15:55.493Z,3.95
2019-03-18T04:20:49.587Z,3.91
2019-03-18T04:25:43.524Z,3.89
2019-03-18T04:30:37.575Z,3.52
2019-03-18T04:35:31.639Z,3.52
2019-03-18T04:40:25.594Z,3.52
2019-03-18T04:45:19.572Z,3.50
2019-03-18T04:50:13.639Z,3.50
2019-03-18T04:55:07.724Z,3.47
2019-03-18T05:00:07.218Z,3.52
2019-03-18T05:05:01.183Z,3.62
2019-03-18T05:09:55.142Z,3.65
2019-03-18T05:14:49.060Z,3.75
2019-03-18T05:19:43.063Z,3.88
2019-03-18T05:24:37.031Z,3.98
2019-03-18T05:29:31.025Z,4.09
2019-03-18T05:34:25.009Z,4.08
2019-03-18T05:39:19.197Z,3.86
2019-03-18T05:44:13.177Z,3.78
2019-03-18T05:49:07.144Z,3.84
2019-03-18T05:54:01.117Z,3.95
2019-03-18T05:58:55.092Z,4.04
2019-03-18T06:03:49.043Z,4.05
2019-03-18T06:08:43.017Z,4.12
2019-03-18T06:13:36.978Z,4.19
2019-03-18T06:18:31.050Z,4.25
2019-03-18T06:23:25.157Z,4.40
2019-03-18T06:28:19.359Z,4.56
2019-03-18T06:33:13.354Z,4.61
2019-03-18T06:38:07.346Z,4.53
2019-03-18T06:43:01.328Z,4.64
2019-03-18T06:48:04.393Z,4.96
2019-03-18T06:52:51.228Z,4.99
2019-03-18T06:57:45.199Z,5.15
2019-03-18T07:02:39.171Z,5.24
2019-03-18T07:07:33.257Z,5.31
2019-03-18T07:12:27.220Z,5.23
2019-03-18T07:17:21.182Z,5.35
2019-03-18T07:22:15.177Z,5.32
2019-03-18T07:27:09.212Z,5.16
2019-03-18T07:32:03.303Z,5.45
2019-03-18T07:36:57.289Z,5.40
2019-03-18T07:41:51.289Z,5.63
2019-03-18T07:46:45.255Z,6.12
2019-03-18T07:51:39.198Z,6.00
2019-03-18T07:56:33.180Z,5.69
2019-03-18T08:01:27.164Z,5.62
2019-03-18T08:06:21.284Z,5.58
2019-03-18T08:11:15.248Z,6.17
2019-03-18T08:16:09.222Z,6.19
2019-03-18T08:21:03.300Z,6.53
2019-03-18T08:25:57.258Z,7.03
2019-03-18T08:30:51.256Z,7.35
2019-03-18T08:35:45.238Z,7.30
2019-03-18T08:40:39.308Z,7.53
2019-03-18T08:45:33.301Z,7.37
2019-03-18T08:50:27.249Z,7.28
2019-03-18T08:55:21.488Z,7.61
2019-03-18T09:00:16.470Z,8.02
2019-03-18T09:05:10.552Z,8.59
2019-03-18T09:10:10.419Z,8.38
2019-03-18T09:15:06.498Z,8.14
2019-03-18T09:20:00.473Z,8.58
2019-03-18T09:24:54.454Z,8.54
2019-03-18T09:29:48.464Z,9.18
2019-03-18T09:34:42.539Z,9.60
2019-03-18T09:39:37.574Z,9.00
2019-03-18T09:44:31.821Z,9.15
2019-03-18T09:49:25.797Z,10.80
2019-03-18T09:54:19.773Z,11.49
2019-03-18T09:59:13.749Z,10.93
2019-03-18T10:04:07.718Z,11.11
2019-03-18T10:09:01.798Z,10.32
2019-03-18T10:13:55.863Z,10.59
2019-03-18T10:18:49.869Z,9.70
2019-03-18T10:23:43.949Z,9.45
2019-03-18T10:28:38.212Z,9.40
2019-03-18T10:33:32.345Z,9.98
2019-03-18T10:38:26.312Z,10.44
2019-03-18T10:43:20.318Z,10.23
2019-03-18T10:48:14.289Z,10.13
2019-03-18T10:53:08.368Z,10.86
2019-03-18T10:58:02.362Z,10.66
2019-03-18T11:02:56.297Z,10.65
2019-03-18T11:07:51.885Z,10.48
2019-03-18T11:12:46.170Z,11.72
2019-03-18T11:17:40.121Z,14.47
2019-03-18T11:22:34.209Z,14.80
2019-03-18T11:27:28.184Z,11.72
2019-03-18T11:32:22.196Z,10.86
2019-03-18T11:37:16.196Z,19.60
2019-03-18T11:42:10.169Z,17.80
2019-03-18T11:47:04.349Z,12.69
2019-03-18T11:51:58.326Z,11.90
2019-03-18T11:56:52.298Z,14.43
2019-03-18T12:01:46.264Z,23.75
2019-03-18T12:06:40.363Z,22.83
2019-03-18T12:11:34.550Z,16.10
2019-03-18T12:16:28.513Z,14.80
2019-03-18T12:21:22.532Z,14.92
2019-03-18T12:26:16.630Z,14.80
2019-03-18T12:31:10.656Z,14.33
2019-03-18T12:36:04.777Z,21.04
2019-03-18T12:40:58.914Z,16.36
2019-03-18T12:45:52.848Z,16.33
2019-03-18T12:50:56.002Z,24.82
2019-03-18T12:55:44.033Z,19.00
2019-03-18T13:00:37.986Z,19.25
2019-03-18T13:05:32.059Z,14.64
2019-03-18T13:10:26.116Z,13.07
2019-03-18T13:15:20.121Z,13.11
2019-03-18T13:20:17.115Z,14.20
2019-03-18T13:25:11.832Z,13.45
2019-03-18T13:30:16.286Z,13.48
2019-03-18T13:35:10.444Z,12.32
2019-03-18T13:40:10.007Z,13.57
2019-03-18T13:45:07.807Z,13.10
2019-03-18T13:50:02.091Z,13.31
2019-03-18T13:54:56.178Z,11.89
2019-03-18T13:59:50.150Z,11.62
2019-03-18T14:04:44.142Z,11.60
2019-03-18T14:09:38.210Z,12.81
2019-03-18T14:14:32.178Z,13.91
2019-03-18T14:19:26.188Z,14.81
2019-03-18T14:24:20.193Z,19.16
2019-03-18T14:29:14.211Z,27.08
2019-03-18T14:34:08.154Z,32.14
2019-03-18T14:39:04.348Z,33.55
2019-03-18T14:43:58.360Z,32.98
2019-03-18T14:48:52.347Z,29.05
2019-03-18T14:53:46.340Z,23.20
2019-03-18T14:58:40.324Z,25.43
2019-03-18T15:03:34.312Z,31.00
2019-03-18T15:08:28.302Z,26.77
2019-03-18T15:13:30.833Z,20.53
2019-03-18T15:18:18.305Z,17.63
2019-03-18T15:23:12.291Z,15.51
2019-03-18T15:28:06.374Z,13.80
2019-03-18T15:33:00.363Z,13.26
2019-03-18T15:37:54.474Z,12.97
2019-03-18T15:42:48.553Z,13.00
2019-03-18T15:47:42.656Z,13.29
2019-03-18T15:52:36.646Z,12.45
2019-03-18T15:57:30.675Z,12.84
2019-03-18T16:02:24.603Z,13.09
2019-03-18T16:07:18.660Z,21.52
2019-03-18T16:12:12.719Z,25.73
2019-03-18T16:17:06.813Z,25.62
2019-03-18T16:22:00.826Z,19.35
2019-03-18T16:26:54.895Z,17.27
2019-03-18T16:31:48.955Z,15.21
2019-03-18T16:36:42.909Z,14.43
2019-03-18T16:41:37.010Z,13.29
2019-03-18T16:46:30.987Z,13.91
2019-03-18T16:51:25.004Z,16.15
2019-03-18T16:56:19.002Z,19.30
2019-03-18T17:01:13.045Z,17.18
2019-03-18T17:06:07.219Z,13.43
2019-03-18T17:11:01.209Z,11.76
2019-03-18T17:15:55.305Z,11.16
2019-03-18T17:20:49.364Z,10.92
2019-03-18T17:25:43.433Z,10.69
2019-03-18T17:30:37.469Z,10.11
2019-03-18T17:35:31.454Z,9.60
2019-03-18T17:40:25.542Z,9.28
2019-03-18T17:45:19.631Z,8.91
2019-03-18T17:50:19.315Z,8.59
2019-03-18T17:55:13.438Z,8.29
2019-03-18T18:00:11.000Z,7.93
2019-03-18T18:05:05.244Z,7.76
2019-03-18T18:09:59.300Z,7.63
2019-03-18T18:14:53.541Z,7.55
2019-03-18T18:19:47.525Z,7.58
2019-03-18T18:24:41.542Z,7.60
2019-03-18T18:29:35.591Z,7.60
2019-03-18T18:34:29.713Z,7.58
2019-03-18T18:39:25.605Z,7.49
2019-03-18T18:44:19.630Z,7.28
2019-03-18T18:49:13.624Z,7.05
2019-03-18T18:54:07.853Z,6.85
2019-03-18T18:59:01.965Z,6.73
2019-03-18T19:03:55.976Z,6.49
2019-03-18T19:08:51.611Z,6.46
2019-03-18T19:13:45.842Z,6.44
2019-03-18T19:18:39.861Z,6.25
2019-03-18T19:23:38.016Z,6.09
2019-03-18T19:28:29.929Z,5.83
2019-03-18T19:33:24.064Z,5.59
2019-03-18T19:38:18.182Z,5.38
2019-03-18T19:43:12.223Z,5.16
2019-03-18T19:48:06.228Z,5.00
2019-03-18T19:53:00.423Z,4.84
2019-03-18T19:57:54.466Z,4.67
2019-03-18T20:02:48.609Z,4.52
2019-03-18T20:07:42.830Z,4.41
2019-03-18T20:12:36.927Z,4.47
2019-03-18T20:17:31.036Z,4.57
2019-03-18T20:22:25.114Z,4.50
2019-03-18T20:27:19.073Z,4.42
2019-03-18T20:32:13.192Z,4.25
2019-03-18T20:37:07.182Z,4.22
2019-03-18T20:42:01.219Z,4.30
2019-03-18T20:46:55.270Z,4.10
2019-03-18T20:51:49.363Z,3.99
2019-03-18T20:56:43.374Z,3.82
2019-03-18T21:01:37.345Z,3.69
2019-03-18T21:06:31.582Z,3.55
2019-03-18T21:11:25.535Z,3.44
2019-03-18T21:16:19.635Z,3.34
2019-03-18T21:21:13.755Z,3.22
2019-03-18T21:26:08.136Z,3.11
2019-03-18T21:31:02.173Z,2.99
2019-03-18T21:35:56.290Z,2.89
2019-03-18T21:40:50.454Z,2.79
2019-03-18T21:45:44.484Z,2.70
2019-03-18T21:50:38.489Z,2.60
2019-03-18T21:55:32.500Z,2.50
2019-03-18T22:00:26.555Z,2.44
2019-03-18T22:05:20.541Z,2.36
2019-03-18T22:10:18.769Z,2.26
2019-03-18T22:15:13.556Z,2.17
2019-03-18T22:20:17.628Z,2.25
2019-03-18T22:25:12.406Z,2.27
2019-03-18T22:30:09.040Z,2.15
2019-03-18T22:35:05.395Z,2.04
2019-03-18T22:39:59.398Z,1.96
2019-03-18T22:44:53.340Z,1.87
2019-03-18T22:49:47.328Z,1.75
2019-03-18T22:54:41.303Z,1.73
2019-03-18T22:59:35.302Z,1.64
2019-03-18T23:04:29.272Z,1.55
2019-03-18T23:09:23.238Z,1.61
2019-03-18T23:14:17.242Z,1.53
2019-03-18T23:19:11.297Z,1.38
2019-03-18T23:24:05.287Z,1.31
2019-03-18T23:28:59.342Z,1.21
2019-03-18T23:33:53.332Z,1.24
2019-03-18T23:38:47.307Z,1.39
2019-03-18T23:43:41.367Z,1.31
2019-03-18T23:48:35.330Z,1.26
2019-03-18T23:53:29.286Z,1.25
2019-03-18T23:58:23.244Z,1.07
